Time,TemperatureF,DewpointF,PressureIn,WindDirection,WindDirectionDegrees,WindSpeedMPH,WindSpeedGustMPH,Humidity,HourlyPrecipIn,Conditions,Clouds,dailyrainin,SoftwareType,DateUTC
2013-02-13 05:30:00,19.8,17.4,30.24,North,0,1.0,4.0,90,0.00,,SKC,0.00,VWS V14.01,2013-02-13 12:30:00,
2013-02-13 06:04:00,19.8,17.4,30.24,North,0,1.0,4.0,90,0.00,,SKC,0.00,VWS V14.01,2013-02-13 13:04:00,
2013-02-13 06:05:00,20.4,17.7,30.24,NNW,347,2.0,2.0,89,0.00,,SKC,0.00,VWS V14.01,2013-02-13 13:05:00,
2013-02-13 06:06:00,20.4,17.7,30.24,NNW,335,2.0,2.0,89,0.00,,SKC,0.00,VWS V14.01,2013-02-13 13:06:00,
2013-02-13 06:08:00,20.4,17.7,30.24,NNW,330,3.0,4.0,89,0.00,,SKC,0.00,VWS V14.01,2013-02-13 13:08:00,
2013-02-13 06:13:00,20.4,17.7,30.24,NW,320,2.0,4.0,89,0.00,,SKC,0.00,VWS V14.01,2013-02-13 13:13:00,
2013-02-13 06:18:00,20.4,17.7,30.24,NNW,338,2.0,4.0,89,0.00,,SKC,0.00,VWS V14.01,2013-02-13 13:18:00,
2013-02-13 06:23:00,20.4,17.7,30.25,NNW,343,1.0,4.0,89,0.00,,SKC,0.00,VWS V14.01,2013-02-13 13:23:00,
2013-02-13 06:28:00,20.3,17.6,30.25,NNW,329,1.0,4.0,89,0.00,,SKC,0.00,VWS V14.01,2013-02-13 13:28:00,
2013-02-13 06:33:00,20.3,17.6,30.25,NNW,328,2.0,3.0,89,0.00,,SKC,0.00,VWS V14.01,2013-02-13 13:33:00,
2013-02-13 06:38:00,20.2,17.5,30.25,NNW,336,3.0,4.0,89,0.00,,SKC,0.00,VWS V14.01,2013-02-13 13:38:00,
2013-02-13 06:43:00,20.4,17.7,30.25,NNW,335,3.0,4.0,89,0.00,,SKC,0.00,VWS V14.01,2013-02-13 13:43:00,
2013-02-13 06:48:00,20.4,17.7,30.25,NW,318,2.0,4.0,89,0.00,,SKC,0.00,VWS V14.01,2013-02-13 13:48:00,
2013-02-13 06:53:00,20.4,17.7,30.25,NNW,329,1.0,4.0,89,0.00,,SKC,0.00,VWS V14.01,2013-02-13 13:53:00,
2013-02-13 06:58:00,20.4,17.7,30.25,NNW,328,1.0,4.0,89,0.00,,SKC,0.00,VWS V14.01,2013-02-13 13:58:00,
2013-02-13 07:03:00,20.2,17.5,30.25,NNW,337,0.0,1.0,89,0.00,,SKC,0.00,VWS V14.01,2013-02-13 14:03:00,
2013-02-13 07:09:00,20.2,17.5,30.26,NNW,337,0.0,1.0,89,0.00,,SKC,0.00,VWS V14.01,2013-02-13 14:09:00,
2013-02-13 07:14:00,20.2,17.7,30.26,NNW,337,0.0,1.0,90,0.00,,SKC,0.00,VWS V14.01,2013-02-13 14:14:00,
2013-02-13 07:19:00,20.1,17.4,30.26,NNW,337,0.0,1.0,89,0.00,,SKC,0.00,VWS V14.01,2013-02-13 14:19:00,
2013-02-13 07:24:00,20.3,17.6,30.26,NNW,337,0.0,1.0,89,0.00,,SKC,0.00,VWS V14.01,2013-02-13 14:24:00,
2013-02-13 07:29:00,21.1,18.4,30.26,NNW,337,0.0,1.0,89,0.00,,SKC,0.00,VWS V14.01,2013-02-13 14:29:00,
2013-02-13 07:34:00,21.7,18.2,30.26,NNW,338,0.0,0.0,86,0.00,,SKC,0.00,VWS V14.01,2013-02-13 14:34:00,
2013-02-13 07:39:00,21.9,18.4,30.26,NNW,337,0.0,0.0,86,0.00,,SKC,0.00,VWS V14.01,2013-02-13 14:39:00,
2013-02-13 07:44:00,22.7,19.1,30.27,NNW,337,0.0,0.0,86,0.00,,SKC,0.00,VWS V14.01,2013-02-13 14:44:00,
2013-02-13 07:49:00,23.6,19.8,30.27,NNW,338,0.0,0.0,85,0.00,,SKC,0.00,VWS V14.01,2013-02-13 14:49:00,
2013-02-13 07:54:00,24.0,19.9,30.27,NNW,337,1.0,1.0,84,0.00,,SKC,0.00,VWS V14.01,2013-02-13 14:54:00,
2013-02-13 07:59:00,24.3,19.9,30.27,NNW,329,0.0,1.0,83,0.00,,SKC,0.00,VWS V14.01,2013-02-13 14:59:00,
2013-02-13 08:04:00,24.7,20.3,30.27,NNW,328,1.0,1.0,83,0.00,,SKC,0.00,VWS V14.01,2013-02-13 15:04:00,
2013-02-13 08:09:00,25.6,20.9,30.27,NW,326,0.0,1.0,82,0.00,,SKC,0.00,VWS V14.01,2013-02-13 15:09:00,
2013-02-13 08:14:00,26.8,21.8,30.28,NW,326,0.0,1.0,81,0.00,,SKC,0.00,VWS V14.01,2013-02-13 15:14:00,
2013-02-13 08:19:00,27.8,21.5,30.28,NW,326,0.0,1.0,77,0.00,,SKC,0.00,VWS V14.01,2013-02-13 15:19:00,
2013-02-13 08:24:00,28.5,21.9,30.28,NW,326,0.0,1.0,76,0.00,,SKC,0.00,VWS V14.01,2013-02-13 15:24:00,
2013-02-13 08:29:00,29.2,22.3,30.28,NNW,328,0.0,1.0,75,0.00,,SKC,0.00,VWS V14.01,2013-02-13 15:29:00,
2013-02-13 08:35:00,30.0,22.7,30.29,NNW,328,1.0,1.0,74,0.00,,SKC,0.00,VWS V14.01,2013-02-13 15:35:00,
2013-02-13 08:40:00,29.9,22.3,30.29,NNW,328,1.0,1.0,73,0.00,,SKC,0.00,VWS V14.01,2013-02-13 15:40:00,
2013-02-13 08:45:00,30.0,22.4,30.29,NNW,328,0.0,1.0,73,0.00,,SKC,0.00,VWS V14.01,2013-02-13 15:45:00,
2013-02-13 08:50:00,30.8,23.2,30.29,NNW,328,0.0,1.0,73,0.00,,SKC,0.00,VWS V14.01,2013-02-13 15:50:00,
2013-02-13 08:55:00,32.6,24.9,30.30,NNW,329,0.0,1.0,73,0.00,,SKC,0.00,VWS V14.01,2013-02-13 15:55:00,
2013-02-13 09:00:00,34.7,25.2,30.30,NNW,328,0.0,1.0,68,0.00,,SKC,0.00,VWS V14.01,2013-02-13 16:00:00,
2013-02-13 09:05:00,34.7,24.9,30.29,NNW,328,1.0,1.0,67,0.00,,SKC,0.00,VWS V14.01,2013-02-13 16:05:00,
2013-02-13 09:10:00,34.3,24.9,30.29,NNW,329,1.0,1.0,68,0.00,,SKC,0.00,VWS V14.01,2013-02-13 16:10:00,
2013-02-13 09:15:00,34.7,25.2,30.29,NNW,328,1.0,1.0,68,0.00,,SKC,0.00,VWS V14.01,2013-02-13 16:15:00,
2013-02-13 09:20:00,35.9,25.7,30.29,NNW,328,0.0,1.0,66,0.00,,SKC,0.00,VWS V14.01,2013-02-13 16:20:00,
2013-02-13 09:26:00,37.6,25.8,30.29,NNW,328,0.0,1.0,62,0.00,,SKC,0.00,VWS V14.01,2013-02-13 16:26:00,
2013-02-13 09:31:00,38.2,26.3,30.29,NNW,328,0.0,0.0,62,0.00,,SKC,0.00,VWS V14.01,2013-02-13 16:31:00,
2013-02-13 09:36:00,38.6,26.7,30.29,NNW,328,0.0,1.0,62,0.00,,SKC,0.00,VWS V14.01,2013-02-13 16:36:00,
2013-02-13 09:41:00,39.4,26.3,30.29,NNW,329,0.0,1.0,59,0.00,,SKC,0.00,VWS V14.01,2013-02-13 16:41:00,
2013-02-13 09:46:00,40.0,26.8,30.29,NNW,328,1.0,1.0,59,0.00,,SKC,0.00,VWS V14.01,2013-02-13 16:46:00,
2013-02-13 09:51:00,41.0,27.4,30.29,NNW,340,0.0,1.0,58,0.00,,SKC,0.00,VWS V14.01,2013-02-13 16:51:00,
2013-02-13 09:56:00,41.1,27.0,30.28,SW,232,1.0,1.0,57,0.00,,SKC,0.00,VWS V14.01,2013-02-13 16:56:00,
2013-02-13 10:01:00,41.2,27.1,30.28,SW,219,1.0,1.0,57,0.00,,SKC,0.00,VWS V14.01,2013-02-13 17:01:00,
2013-02-13 10:06:00,41.7,26.7,30.28,SSE,167,0.0,1.0,55,0.00,,SKC,0.00,VWS V14.01,2013-02-13 17:06:00,
2013-02-13 10:11:00,42.8,27.3,30.28,SE,136,0.0,1.0,54,0.00,,SKC,0.00,VWS V14.01,2013-02-13 17:11:00,
2013-02-13 10:17:00,43.6,26.7,30.28,SE,139,1.0,1.0,51,0.00,,SKC,0.00,VWS V14.01,2013-02-13 17:17:00,
2013-02-13 10:22:00,43.7,27.2,30.28,ESE,120,0.0,1.0,52,0.00,,SKC,0.00,VWS V14.01,2013-02-13 17:22:00,
2013-02-13 10:27:00,45.1,25.6,30.28,SSE,165,1.0,1.0,46,0.00,,SKC,0.00,VWS V14.01,2013-02-13 17:27:00,
2013-02-13 10:32:00,45.1,24.0,30.28,South,190,2.0,2.0,43,0.00,,SKC,0.00,VWS V14.01,2013-02-13 17:32:00,
2013-02-13 10:37:00,45.2,25.7,30.28,SSE,166,0.0,2.0,46,0.00,,SKC,0.00,VWS V14.01,2013-02-13 17:37:00,
2013-02-13 10:42:00,46.0,23.0,30.28,SW,216,1.0,2.0,40,0.00,,SKC,0.00,VWS V14.01,2013-02-13 17:42:00,
2013-02-13 10:47:00,46.1,22.5,30.27,SSW,192,2.0,2.0,39,0.00,,SKC,0.00,VWS V14.01,2013-02-13 17:47:00,
2013-02-13 10:52:00,46.5,22.9,30.27,SE,135,3.0,3.0,39,0.00,,SKC,0.00,VWS V14.01,2013-02-13 17:52:00,
2013-02-13 10:57:00,47.0,22.1,30.27,SSW,212,0.0,3.0,37,0.00,,SKC,0.00,VWS V14.01,2013-02-13 17:57:00,
2013-02-13 11:02:00,47.4,22.5,30.27,North,357,0.0,2.0,37,0.00,,SKC,0.00,VWS V14.01,2013-02-13 18:02:00,
2013-02-13 11:07:00,47.9,23.5,30.27,SSW,208,2.0,3.0,38,0.00,,SKC,0.00,VWS V14.01,2013-02-13 18:07:00,
2013-02-13 11:12:00,47.9,24.1,30.27,South,173,2.0,4.0,39,0.00,,SKC,0.00,VWS V14.01,2013-02-13 18:12:00,
2013-02-13 11:17:00,48.2,23.2,30.27,ESE,115,1.0,4.0,37,0.00,,SKC,0.00,VWS V14.01,2013-02-13 18:17:00,
2013-02-13 11:22:00,48.8,22.4,30.27,SSE,166,0.0,4.0,35,0.00,,SKC,0.00,VWS V14.01,2013-02-13 18:22:00,
2013-02-13 11:27:00,49.8,21.1,30.27,NNE,30,2.0,4.0,32,0.00,,SKC,0.00,VWS V14.01,2013-02-13 18:27:00,
2013-02-13 11:32:00,50.5,21.0,30.27,SE,124,0.0,2.0,31,0.00,,SKC,0.00,VWS V14.01,2013-02-13 18:32:00,
2013-02-13 11:37:00,50.9,19.8,30.26,West,269,2.0,3.0,29,0.00,,SKC,0.00,VWS V14.01,2013-02-13 18:37:00,
2013-02-13 11:42:00,50.1,18.3,30.26,NNE,28,2.0,4.0,28,0.00,,SKC,0.00,VWS V14.01,2013-02-13 18:42:00,
2013-02-13 11:48:00,50.1,19.1,30.26,South,187,1.0,4.0,29,0.00,,SKC,0.00,VWS V14.01,2013-02-13 18:48:00,
2013-02-13 11:53:00,50.5,18.6,30.26,West,276,2.0,6.0,28,0.00,,SKC,0.00,VWS V14.01,2013-02-13 18:53:00,
2013-02-13 11:58:00,50.6,18.7,30.25,WSW,243,2.0,6.0,28,0.00,,SKC,0.00,VWS V14.01,2013-02-13 18:58:00,
2013-02-13 12:03:00,51.7,17.9,30.25,SSE,158,2.0,3.0,26,0.00,,SKC,0.00,VWS V14.01,2013-02-13 19:03:00,
2013-02-13 12:08:00,51.6,17.9,30.24,South,190,1.0,3.0,26,0.00,,SKC,0.00,VWS V14.01,2013-02-13 19:08:00,
2013-02-13 12:13:00,52.0,18.2,30.24,ESE,122,2.0,3.0,26,0.00,,SKC,0.00,VWS V14.01,2013-02-13 19:13:00,
2013-02-13 12:18:00,52.1,17.4,30.24,SSW,207,3.0,5.0,25,0.00,,SKC,0.00,VWS V14.01,2013-02-13 19:18:00,
2013-02-13 12:23:00,52.4,18.5,30.23,SSW,205,2.0,5.0,26,0.00,,SKC,0.00,VWS V14.01,2013-02-13 19:23:00,
2013-02-13 12:28:00,52.7,16.9,30.23,SSW,199,1.0,5.0,24,0.00,,SKC,0.00,VWS V14.01,2013-02-13 19:28:00,
2013-02-13 12:33:00,53.5,15.6,30.23,WNW,297,1.0,2.0,22,0.00,,SKC,0.00,VWS V14.01,2013-02-13 19:33:00,
2013-02-13 12:38:00,54.1,17.1,30.23,ESE,115,3.0,3.0,23,0.00,,SKC,0.00,VWS V14.01,2013-02-13 19:38:00,
2013-02-13 12:43:00,54.3,15.2,30.22,SSW,192,1.0,4.0,21,0.00,,SKC,0.00,VWS V14.01,2013-02-13 19:43:00,
2013-02-13 12:48:00,53.9,15.9,30.22,SW,217,1.0,4.0,22,0.00,,SKC,0.00,VWS V14.01,2013-02-13 19:48:00,
2013-02-13 12:53:00,54.3,16.3,30.21,SSW,194,1.0,4.0,22,0.00,,SKC,0.00,VWS V14.01,2013-02-13 19:53:00,
2013-02-13 12:58:00,54.6,17.6,30.21,NE,43,2.0,6.0,23,0.00,,SKC,0.00,VWS V14.01,2013-02-13 19:58:00,
2013-02-13 13:03:00,54.4,15.3,30.21,NNE,13,3.0,4.0,21,0.00,,SKC,0.00,VWS V14.01,2013-02-13 20:03:00,
2013-02-13 13:08:00,54.5,16.5,30.20,NNW,338,0.0,4.0,22,0.00,,SKC,0.00,VWS V14.01,2013-02-13 20:08:00,
2013-02-13 13:13:00,54.8,15.6,30.20,NE,56,1.0,4.0,21,0.00,,SKC,0.00,VWS V14.01,2013-02-13 20:13:00,
2013-02-13 13:19:00,55.5,16.2,30.20,South,183,1.0,4.0,21,0.00,,SKC,0.00,VWS V14.01,2013-02-13 20:19:00,
2013-02-13 13:24:00,55.5,16.2,30.20,NNW,336,2.0,4.0,21,0.00,,SKC,0.00,VWS V14.01,2013-02-13 20:24:00,
2013-02-13 13:29:00,55.8,17.5,30.19,NNW,335,3.0,4.0,22,0.00,,SKC,0.00,VWS V14.01,2013-02-13 20:29:00,
2013-02-13 13:34:00,55.7,17.5,30.18,WNW,297,0.0,4.0,22,0.00,,SKC,0.00,VWS V14.01,2013-02-13 20:34:00,
2013-02-13 13:39:00,55.8,16.5,30.18,SSW,199,2.0,4.0,21,0.00,,SKC,0.00,VWS V14.01,2013-02-13 20:39:00,
2013-02-13 13:44:00,55.8,16.5,30.18,South,181,1.0,4.0,21,0.00,,SKC,0.00,VWS V14.01,2013-02-13 20:44:00,
2013-02-13 13:49:00,56.6,17.1,30.18,NE,55,2.0,6.0,21,0.00,,SKC,0.00,VWS V14.01,2013-02-13 20:49:00,
2013-02-13 13:54:00,57.1,17.6,30.17,ENE,58,0.0,6.0,21,0.00,,SKC,0.00,VWS V14.01,2013-02-13 20:54:00,
2013-02-13 13:59:00,57.4,16.7,30.17,ESE,120,2.0,6.0,20,0.00,,SKC,0.00,VWS V14.01,2013-02-13 20:59:00,
2013-02-13 14:04:00,57.2,16.5,30.18,NW,310,2.0,3.0,20,0.00,,SKC,0.00,VWS V14.01,2013-02-13 21:04:00,
2013-02-13 14:09:00,56.5,17.1,30.17,WNW,296,1.0,3.0,21,0.00,,SKC,0.00,VWS V14.01,2013-02-13 21:09:00,
2013-02-13 14:14:00,56.3,16.9,30.17,SE,133,0.0,3.0,21,0.00,,SKC,0.00,VWS V14.01,2013-02-13 21:14:00,
2013-02-13 14:19:00,56.8,17.3,30.17,NE,45,2.0,3.0,21,0.00,,SKC,0.00,VWS V14.01,2013-02-13 21:19:00,
2013-02-13 14:24:00,57.7,15.8,30.16,NW,305,3.0,5.0,19,0.00,,SKC,0.00,VWS V14.01,2013-02-13 21:24:00,
2013-02-13 14:29:00,56.9,16.3,30.16,West,265,2.0,5.0,20,0.00,,SKC,0.00,VWS V14.01,2013-02-13 21:29:00,
2013-02-13 14:35:00,57.2,16.5,30.16,NNW,332,0.0,3.0,20,0.00,,SKC,0.00,VWS V14.01,2013-02-13 21:35:00,
2013-02-13 14:40:00,57.6,15.7,30.16,NW,311,1.0,3.0,19,0.00,,SKC,0.00,VWS V14.01,2013-02-13 21:40:00,
2013-02-13 14:45:00,57.2,15.3,30.16,SW,232,3.0,4.0,19,0.00,,SKC,0.00,VWS V14.01,2013-02-13 21:45:00,
2013-02-13 14:50:00,57.3,15.4,30.15,SE,129,2.0,4.0,19,0.00,,SKC,0.00,VWS V14.01,2013-02-13 21:50:00,
2013-02-13 14:55:00,57.7,16.9,30.15,North,356,1.0,4.0,20,0.00,,SKC,0.00,VWS V14.01,2013-02-13 21:55:00,
2013-02-13 15:00:00,58.0,17.2,30.15,SW,236,5.0,5.0,20,0.00,,SKC,0.00,VWS V14.01,2013-02-13 22:00:00,
2013-02-13 15:05:00,58.0,17.2,30.15,South,173,1.0,5.0,20,0.00,,SKC,0.00,VWS V14.01,2013-02-13 22:05:00,
2013-02-13 15:10:00,58.6,17.7,30.15,West,271,2.0,5.0,20,0.00,,SKC,0.00,VWS V14.01,2013-02-13 22:10:00,
2013-02-13 15:15:00,58.1,16.1,30.15,SSE,163,1.0,5.0,19,0.00,,SKC,0.00,VWS V14.01,2013-02-13 22:15:00,
2013-02-13 15:20:00,58.2,16.2,30.15,SSE,153,4.0,5.0,19,0.00,,SKC,0.00,VWS V14.01,2013-02-13 22:20:00,
2013-02-13 15:25:00,58.2,14.9,30.14,South,176,2.0,5.0,18,0.00,,SKC,0.00,VWS V14.01,2013-02-13 22:25:00,
2013-02-13 15:30:00,58.3,15.0,30.14,SSW,197,4.0,4.0,18,0.00,,SKC,0.00,VWS V14.01,2013-02-13 22:30:00,
2013-02-13 15:35:00,58.0,13.4,30.14,SSW,195,3.0,9.0,17,0.00,,SKC,0.00,VWS V14.01,2013-02-13 22:35:00,
2013-02-13 15:40:00,57.7,14.5,30.14,SSW,207,4.0,9.0,18,0.00,,SKC,0.00,VWS V14.01,2013-02-13 22:40:00,
2013-02-13 15:45:00,57.5,14.4,30.14,South,172,2.0,9.0,18,0.00,,SKC,0.00,VWS V14.01,2013-02-13 22:45:00,
2013-02-13 15:51:00,57.8,14.6,30.14,SSE,166,4.0,9.0,18,0.00,,SKC,0.00,VWS V14.01,2013-02-13 22:51:00,
2013-02-13 15:56:00,57.8,13.3,30.14,SW,226,3.0,9.0,17,0.00,,SKC,0.00,VWS V14.01,2013-02-13 22:56:00,
2013-02-13 16:01:00,57.9,12.0,30.14,SW,218,3.0,4.0,16,0.00,,SKC,0.00,VWS V14.01,2013-02-13 23:01:00,
2013-02-13 16:06:00,57.9,12.0,30.14,SSW,208,3.0,7.0,16,0.00,,SKC,0.00,VWS V14.01,2013-02-13 23:06:00,
2013-02-13 16:11:00,57.7,11.8,30.14,SSW,197,2.0,7.0,16,0.00,,SKC,0.00,VWS V14.01,2013-02-13 23:11:00,
2013-02-13 16:16:00,57.7,11.8,30.14,SW,218,4.0,7.0,16,0.00,,SKC,0.00,VWS V14.01,2013-02-13 23:16:00,
2013-02-13 16:21:00,57.7,13.2,30.14,SSW,200,2.0,7.0,17,0.00,,SKC,0.00,VWS V14.01,2013-02-13 23:21:00,
2013-02-13 16:26:00,57.9,12.0,30.14,SSW,208,2.0,7.0,16,0.00,,SKC,0.00,VWS V14.01,2013-02-13 23:26:00,
2013-02-13 16:31:00,57.9,13.4,30.13,WSW,248,6.0,8.0,17,0.00,,SKC,0.00,VWS V14.01,2013-02-13 23:31:00,
2013-02-13 16:36:00,57.8,11.9,30.13,SW,222,3.0,8.0,16,0.00,,SKC,0.00,VWS V14.01,2013-02-13 23:36:00,
2013-02-13 16:41:00,57.7,11.8,30.14,SSW,208,5.0,8.0,16,0.00,,SKC,0.00,VWS V14.01,2013-02-13 23:41:00,
2013-02-13 16:46:00,57.7,11.8,30.13,SSW,199,5.0,8.0,16,0.00,,SKC,0.00,VWS V14.01,2013-02-13 23:46:00,
2013-02-13 16:52:00,57.7,11.8,30.13,SSW,212,5.0,8.0,16,0.00,,SKC,0.00,VWS V14.01,2013-02-13 23:52:00,
2013-02-13 16:57:00,57.6,11.8,30.13,SW,218,6.0,8.0,16,0.00,,SKC,0.00,VWS V14.01,2013-02-13 23:57:00,
2013-02-13 17:02:00,57.4,11.6,30.13,SW,233,2.0,5.0,16,0.00,,SKC,0.00,VWS V14.01,2013-02-14 00:02:00,
2013-02-13 17:07:00,57.5,11.7,30.13,SSW,194,4.0,6.0,16,0.00,,SKC,0.00,VWS V14.01,2013-02-14 00:07:00,
2013-02-13 17:12:00,57.3,12.9,30.13,SSW,194,1.0,8.0,17,0.00,,SKC,0.00,VWS V14.01,2013-02-14 00:12:00,
2013-02-13 17:17:00,57.2,12.8,30.13,SSW,194,1.0,8.0,17,0.00,,SKC,0.00,VWS V14.01,2013-02-14 00:17:00,
2013-02-13 17:22:00,57.1,12.7,30.13,SSW,194,2.0,8.0,17,0.00,,SKC,0.00,VWS V14.01,2013-02-14 00:22:00,
2013-02-13 17:27:00,57.0,12.6,30.13,South,174,3.0,8.0,17,0.00,,SKC,0.00,VWS V14.01,2013-02-14 00:27:00,
2013-02-13 17:32:00,56.8,12.5,30.13,SSE,167,1.0,5.0,17,0.00,,SKC,0.00,VWS V14.01,2013-02-14 00:32:00,
2013-02-13 17:37:00,56.7,13.7,30.13,South,184,2.0,5.0,18,0.00,,SKC,0.00,VWS V14.01,2013-02-14 00:37:00,
2013-02-13 17:42:00,56.5,13.5,30.13,SSW,193,2.0,5.0,18,0.00,,SKC,0.00,VWS V14.01,2013-02-14 00:42:00,
2013-02-13 17:48:00,56.2,13.3,30.13,South,188,2.0,5.0,18,0.00,,SKC,0.00,VWS V14.01,2013-02-14 00:48:00,
2013-02-13 17:53:00,55.6,12.8,30.13,South,177,1.0,5.0,18,0.00,,SKC,0.00,VWS V14.01,2013-02-14 00:53:00,
2013-02-13 17:58:00,54.9,13.4,30.14,South,188,2.0,5.0,19,0.00,,SKC,0.00,VWS V14.01,2013-02-14 00:58:00,
2013-02-13 18:03:00,54.0,19.0,30.14,South,181,3.0,7.0,25,0.00,,SKC,0.00,VWS V14.01,2013-02-14 01:03:00,
2013-02-13 18:08:00,53.1,19.1,30.14,South,187,2.0,7.0,26,0.00,,SKC,0.00,VWS V14.01,2013-02-14 01:08:00,
2013-02-13 18:13:00,52.4,20.3,30.14,South,190,4.0,7.0,28,0.00,,SKC,0.00,VWS V14.01,2013-02-14 01:13:00,
2013-02-13 18:18:00,51.8,20.6,30.14,South,190,2.0,7.0,29,0.00,,SKC,0.00,VWS V14.01,2013-02-14 01:18:00,
2013-02-13 18:23:00,51.4,21.8,30.14,South,186,3.0,7.0,31,0.00,,SKC,0.00,VWS V14.01,2013-02-14 01:23:00,
2013-02-13 18:28:00,50.9,21.4,30.14,South,184,3.0,7.0,31,0.00,,SKC,0.00,VWS V14.01,2013-02-14 01:28:00,
2013-02-13 18:33:00,50.6,21.1,30.15,South,183,4.0,4.0,31,0.00,,SKC,0.00,VWS V14.01,2013-02-14 01:33:00,
2013-02-13 18:38:00,50.3,21.6,30.15,South,188,3.0,4.0,32,0.00,,SKC,0.00,VWS V14.01,2013-02-14 01:38:00,
2013-02-13 18:43:00,49.9,21.2,30.15,South,177,2.0,4.0,32,0.00,,SKC,0.00,VWS V14.01,2013-02-14 01:43:00,
2013-02-13 18:48:00,49.3,21.4,30.15,South,176,3.0,4.0,33,0.00,,SKC,0.00,VWS V14.01,2013-02-14 01:48:00,
2013-02-13 18:54:00,48.9,21.1,30.15,South,179,1.0,4.0,33,0.00,,SKC,0.00,VWS V14.01,2013-02-14 01:54:00,
2013-02-13 18:59:00,48.6,21.5,30.15,South,173,2.0,5.0,34,0.00,,SKC,0.00,VWS V14.01,2013-02-14 01:59:00,
2013-02-13 19:04:00,48.0,21.0,30.15,South,176,1.0,2.0,34,0.00,,SKC,0.00,VWS V14.01,2013-02-14 02:04:00,
2013-02-13 19:09:00,47.5,21.2,30.15,South,187,1.0,2.0,35,0.00,,SKC,0.00,VWS V14.01,2013-02-14 02:09:00,
2013-02-13 19:14:00,47.2,21.6,30.15,South,187,1.0,2.0,36,0.00,,SKC,0.00,VWS V14.01,2013-02-14 02:14:00,
2013-02-13 19:20:00,46.9,21.4,30.16,SSW,210,0.0,3.0,36,0.00,,SKC,0.00,VWS V14.01,2013-02-14 02:20:00,
2013-02-13 19:25:00,46.6,21.7,30.16,South,185,1.0,3.0,37,0.00,,SKC,0.00,VWS V14.01,2013-02-14 02:25:00,
2013-02-13 19:30:00,46.3,21.5,30.16,SSW,199,2.0,2.0,37,0.00,,SKC,0.00,VWS V14.01,2013-02-14 02:30:00,
2013-02-13 19:35:00,46.2,21.4,30.16,SSW,205,0.0,4.0,37,0.00,,SKC,0.00,VWS V14.01,2013-02-14 02:35:00,
2013-02-13 19:41:00,46.2,21.4,30.16,SW,218,1.0,4.0,37,0.00,,SKC,0.00,VWS V14.01,2013-02-14 02:41:00,
2013-02-13 19:46:00,45.9,21.1,30.16,SSW,207,1.0,4.0,37,0.00,,SKC,0.00,VWS V14.01,2013-02-14 02:46:00,
2013-02-13 19:51:00,45.7,21.6,30.16,SSW,212,4.0,5.0,38,0.00,,SKC,0.00,VWS V14.01,2013-02-14 02:51:00,
2013-02-13 19:56:00,45.8,21.0,30.16,South,188,2.0,5.0,37,0.00,,SKC,0.00,VWS V14.01,2013-02-14 02:56:00,
2013-02-13 20:01:00,46.0,20.6,30.16,SW,217,2.0,3.0,36,0.00,,SKC,0.00,VWS V14.01,2013-02-14 03:01:00,
2013-02-13 20:06:00,46.0,20.6,30.16,South,173,4.0,4.0,36,0.00,,SKC,0.00,VWS V14.01,2013-02-14 03:06:00,
2013-02-13 20:11:00,46.4,19.6,30.16,SSE,152,1.0,7.0,34,0.00,,SKC,0.00,VWS V14.01,2013-02-14 03:11:00,
2013-02-13 20:16:00,46.5,19.7,30.16,SSW,195,2.0,8.0,34,0.00,,SKC,0.00,VWS V14.01,2013-02-14 03:16:00,
2013-02-13 20:21:00,46.0,19.9,30.17,SSW,205,2.0,8.0,35,0.00,,SKC,0.00,VWS V14.01,2013-02-14 03:21:00,
2013-02-13 20:26:00,45.5,19.5,30.17,SW,214,2.0,8.0,35,0.00,,SKC,0.00,VWS V14.01,2013-02-14 03:26:00,
2013-02-13 20:31:00,45.2,19.2,30.17,SW,219,2.0,3.0,35,0.00,,SKC,0.00,VWS V14.01,2013-02-14 03:31:00,
2013-02-13 20:36:00,44.9,19.6,30.17,SSW,200,2.0,4.0,36,0.00,,SKC,0.00,VWS V14.01,2013-02-14 03:36:00,
2013-02-13 20:41:00,44.5,19.2,30.17,SW,214,3.0,4.0,36,0.00,,SKC,0.00,VWS V14.01,2013-02-14 03:41:00,
2013-02-13 20:46:00,44.5,19.2,30.17,SW,220,2.0,4.0,36,0.00,,SKC,0.00,VWS V14.01,2013-02-14 03:46:00,
2013-02-13 20:52:00,44.3,19.7,30.17,SSW,211,5.0,5.0,37,0.00,,SKC,0.00,VWS V14.01,2013-02-14 03:52:00,
2013-02-13 20:57:00,44.5,19.9,30.17,SSW,212,2.0,5.0,37,0.00,,SKC,0.00,VWS V14.01,2013-02-14 03:57:00,
2013-02-13 21:02:00,44.3,19.7,30.17,SW,214,3.0,4.0,37,0.00,,SKC,0.00,VWS V14.01,2013-02-14 04:02:00,
2013-02-13 21:07:00,44.3,20.3,30.17,SW,224,1.0,4.0,38,0.00,,SKC,0.00,VWS V14.01,2013-02-14 04:07:00,
2013-02-13 21:12:00,43.9,20.0,30.17,SW,226,1.0,4.0,38,0.00,,SKC,0.00,VWS V14.01,2013-02-14 04:12:00,
2013-02-13 21:17:00,43.3,20.0,30.17,SW,217,1.0,4.0,39,0.00,,SKC,0.00,VWS V14.01,2013-02-14 04:17:00,
2013-02-13 21:22:00,42.3,20.3,30.17,SW,219,1.0,4.0,41,0.00,,SKC,0.00,VWS V14.01,2013-02-14 04:22:00,
2013-02-13 21:27:00,41.4,20.0,30.17,SW,219,0.0,4.0,42,0.00,,SKC,0.00,VWS V14.01,2013-02-14 04:27:00,
2013-02-13 21:32:00,40.7,20.0,30.17,SW,218,0.0,0.0,43,0.00,,SKC,0.00,VWS V14.01,2013-02-14 04:32:00,
2013-02-13 21:37:00,40.0,19.9,30.18,SW,218,1.0,1.0,44,0.00,,SKC,0.00,VWS V14.01,2013-02-14 04:37:00,
2013-02-13 21:42:00,39.7,20.1,30.18,SW,235,3.0,3.0,45,0.00,,SKC,0.00,VWS V14.01,2013-02-14 04:42:00,
2013-02-13 21:47:00,39.9,20.3,30.18,SW,217,1.0,3.0,45,0.00,,SKC,0.00,VWS V14.01,2013-02-14 04:47:00,
2013-02-13 21:52:00,40.1,21.0,30.18,West,261,1.0,3.0,46,0.00,,SKC,0.00,VWS V14.01,2013-02-14 04:52:00,
2013-02-13 21:57:00,40.1,21.0,30.18,WSW,250,0.0,3.0,46,0.00,,SKC,0.00,VWS V14.01,2013-02-14 04:57:00,
2013-02-13 22:00:00,40.0,20.9,30.18,SW,228,1.0,3.0,46,0.00,,SKC,0.00,VWS V14.01,2013-02-14 05:00:00,
2013-02-13 22:02:00,39.6,20.5,30.18,SW,227,1.0,1.0,46,0.00,,SKC,0.00,VWS V14.01,2013-02-14 05:02:00,
2013-02-13 22:07:00,38.5,20.0,30.19,SW,228,0.0,1.0,47,0.00,,SKC,0.00,VWS V14.01,2013-02-14 05:07:00,
2013-02-13 22:13:00,37.6,19.7,30.19,SW,228,0.0,1.0,48,0.00,,SKC,0.00,VWS V14.01,2013-02-14 05:13:00,
2013-02-13 22:16:00,37.0,19.6,30.19,SW,227,0.0,1.0,49,0.00,,SKC,0.00,VWS V14.01,2013-02-14 05:16:00,
2013-02-13 22:21:00,36.0,20.1,30.19,NNE,21,0.0,2.0,52,0.00,,SKC,0.00,VWS V14.01,2013-02-14 05:21:00,
2013-02-13 22:26:00,35.3,19.5,30.19,NNE,22,0.0,2.0,52,0.00,,SKC,0.00,VWS V14.01,2013-02-14 05:26:00,
2013-02-13 22:31:00,34.3,19.4,30.19,NNE,20,1.0,1.0,54,0.00,,SKC,0.00,VWS V14.01,2013-02-14 05:31:00,
2013-02-13 22:36:00,34.0,19.5,30.19,NNE,20,1.0,1.0,55,0.00,,SKC,0.00,VWS V14.01,2013-02-14 05:36:00,
2013-02-13 22:41:00,33.7,19.3,30.19,NNE,20,1.0,1.0,55,0.00,,SKC,0.00,VWS V14.01,2013-02-14 05:41:00,
2013-02-13 22:46:00,33.8,19.4,30.19,NNE,20,1.0,1.0,55,0.00,,SKC,0.00,VWS V14.01,2013-02-14 05:46:00,
2013-02-13 22:51:00,33.2,19.2,30.19,NNE,20,0.0,1.0,56,0.00,,SKC,0.00,VWS V14.01,2013-02-14 05:51:00,
2013-02-13 22:56:00,32.7,19.2,30.19,NNE,20,1.0,1.0,57,0.00,,SKC,0.00,VWS V14.01,2013-02-14 05:56:00,
2013-02-13 23:01:00,32.1,19.0,30.20,NNE,20,0.0,0.0,58,0.00,,SKC,0.00,VWS V14.01,2013-02-14 06:01:00,
2013-02-13 23:06:00,31.6,18.9,30.20,NNE,20,0.0,1.0,59,0.00,,SKC,0.00,VWS V14.01,2013-02-14 06:06:00,
2013-02-13 23:11:00,31.3,18.6,30.20,NNE,20,1.0,1.0,59,0.00,,SKC,0.00,VWS V14.01,2013-02-14 06:11:00,
2013-02-13 23:16:00,31.6,18.1,30.20,North,9,0.0,1.0,57,0.00,,SKC,0.00,VWS V14.01,2013-02-14 06:16:00,
2013-02-13 23:21:00,31.6,18.1,30.20,NW,318,1.0,1.0,57,0.00,,SKC,0.00,VWS V14.01,2013-02-14 06:21:00,
2013-02-13 23:26:00,31.5,18.0,30.20,NW,311,1.0,2.0,57,0.00,,SKC,0.00,VWS V14.01,2013-02-14 06:26:00,
2013-02-13 23:31:00,31.5,17.6,30.20,NNW,333,2.0,2.0,56,0.00,,SKC,0.00,VWS V14.01,2013-02-14 06:31:00,
2013-02-13 23:37:00,31.6,17.7,30.20,NNW,347,1.0,2.0,56,0.00,,SKC,0.00,VWS V14.01,2013-02-14 06:37:00,
2013-02-13 23:42:00,31.3,17.9,30.20,NNW,330,1.0,2.0,57,0.00,,SKC,0.00,VWS V14.01,2013-02-14 06:42:00,
2013-02-13 23:47:00,31.2,18.2,30.20,NNW,328,1.0,2.0,58,0.00,,SKC,0.00,VWS V14.01,2013-02-14 06:47:00,
2013-02-13 23:52:00,30.8,18.2,30.20,NW,325,1.0,2.0,59,0.00,,SKC,0.00,VWS V14.01,2013-02-14 06:52:00,
2013-02-13 23:57:00,30.6,18.4,30.19,NW,318,1.0,2.0,60,0.00,,SKC,0.00,VWS V14.01,2013-02-14 06:57:00,